Alba, TX (75410)

3:57 PM CST on February 09, 2016 (GMT -0600)
Ray Branch - Lake Fork | | Change Station
CLOSE
Current Station
Personal Weather Station
Location: Alba, TX
Elevation: 420 ft
Nearby Weather Stations
Active Advisory: Lake Wind Advisory

Elev 420 ft 32.81 °N, 95.58 °W | Updated 1 minute ago

Clear
Clear
59.4 °F
Feels Like 59.4 °F
N
7.0
Wind Variable Wind from NW
Gusts 11.0 mph

Today
High -- | Low -- °F
--% Chance of Precip.
Yesterday
High -- | Low -- °F
Precip. -- in
Pressure 30.21 in
Visibility 10.0 miles
Clouds Clear
Dew Point 28 °F
Humidity 30%
Rainfall 0.00 in
Snow Depth Not available.
7:11 AM 6:02 PM
New Moon, 2% visible
METAR KJDD 092135Z AUTO 28013G21KT 10SM CLR 14/M03 A3021 RMK AO2
Pressure 30.21 in
Visibility 10.0 miles
Clouds Clear
Dew Point 28 °F
Humidity 30%
Rainfall 0.00 in
Snow Depth Not available.
7:11 AM 6:02 PM
New Moon, 2% visible
METAR KJDD 092135Z AUTO 28013G21KT 10SM CLR 14/M03 A3021 RMK AO2

10-Day Weather Forecast

Almanac

Astronomy

Feb. 09, 2016 Rise Set
Actual Time
Civil Twilight
Nautical Twilight
Astronomical Twilight
Moon
Length of Visible Light
Length of Day
Tomorrow will be .
, % of the Moon is Illuminated

Today's Extremes

State Highs State Lows

Community

WunderPhotos

Upload Photos

1,891,710 photos uploaded!

WunderBlog® & News

Nearby

Air Quality

  Air Quality AQ Index Pollutant
Not available.

Snow Depth

Station Depth Elevation

Earthquake Activity

City Distance Mag. Time & Date
Minimum magnitude displayed is 2.5.

Coastal Water Temperatures

Place Temperature

Stations

Nearby Weather Stations

Station Location Temp. Windchill Dew Point Humidity Wind Precip. Elev Updated Type
                   

Watches & Warnings

Lake Wind Advisory
Issued: 10:46 AM CST Feb. 9, 2016 – National Weather Service

... Lake Wind Advisory remains in effect until 4 PM CST this
afternoon...

* event... northwesterly winds between 15 and 20 mph with gusts up
to 25 to 30 mph.

* Timing... through mid afternoon.

* Impact... boaters should exercise caution on area lakes due to
rough conditions.

Precautionary/preparedness actions...

A lake Wind Advisory indicates that winds will cause rough chop
on area lakes. Small boats will be especially prone to capsizing.



12